createdAt,value
2018-09-02T00:01:02.867Z,10.79
2018-09-02T00:03:31.363Z,10.78
2018-09-02T00:06:00.388Z,10.88
2018-09-02T00:08:28.834Z,10.47
2018-09-02T00:10:57.334Z,10.71
2018-09-02T00:13:25.985Z,10.69
2018-09-02T00:15:54.418Z,10.77
2018-09-02T00:18:22.904Z,10.65
2018-09-02T00:20:51.702Z,10.74
2018-09-02T00:23:20.122Z,11.00
2018-09-02T00:25:48.611Z,10.87
2018-09-02T00:28:17.250Z,10.72
2018-09-02T00:30:45.699Z,10.60
2018-09-02T00:33:14.184Z,10.82
2018-09-02T00:35:42.848Z,10.68
2018-09-02T00:38:11.389Z,10.64
2018-09-02T00:40:39.850Z,10.73
2018-09-02T00:43:08.522Z,10.57
2018-09-02T00:45:36.970Z,10.47
2018-09-02T00:48:05.442Z,10.57
2018-09-02T00:50:33.882Z,10.51
2018-09-02T00:53:02.358Z,10.48
2018-09-02T00:55:30.844Z,10.37
2018-09-02T00:57:59.506Z,10.43
2018-09-02T01:00:28.015Z,10.33
2018-09-02T01:02:56.516Z,10.31
2018-09-02T01:05:25.041Z,10.26
2018-09-02T01:07:54.787Z,10.21
2018-09-02T01:10:23.242Z,10.16
2018-09-02T01:12:51.986Z,10.16
2018-09-02T01:15:20.428Z,10.32
2018-09-02T01:17:48.899Z,10.26
2018-09-02T01:20:17.575Z,10.24
2018-09-02T01:22:46.051Z,10.21
2018-09-02T01:25:14.514Z,10.18
2018-09-02T01:27:43.043Z,10.21
2018-09-02T01:30:11.604Z,10.16
2018-09-02T01:32:40.043Z,10.15
2018-09-02T01:35:10.939Z,9.99
2018-09-02T01:37:39.438Z,9.99
2018-09-02T01:40:07.870Z,9.94
2018-09-02T01:42:36.378Z,9.95
2018-09-02T01:45:05.219Z,9.98
2018-09-02T01:47:33.687Z,9.88
2018-09-02T01:50:02.378Z,9.96
2018-09-02T01:52:30.815Z,9.94
2018-09-02T01:54:59.274Z,10.03
2018-09-02T01:57:27.950Z,9.90
2018-09-02T01:59:56.506Z,9.53
2018-09-02T02:02:24.971Z,9.67
2018-09-02T02:04:53.631Z,9.71
2018-09-02T02:07:22.080Z,9.81
2018-09-02T02:09:50.546Z,9.72
2018-09-02T02:12:19.054Z,9.63
2018-09-02T02:14:47.487Z,9.52
2018-09-02T02:17:15.947Z,9.74
2018-09-02T02:19:44.587Z,9.80
2018-09-02T02:22:13.040Z,9.84
2018-09-02T02:24:41.450Z,9.78
2018-09-02T02:27:09.978Z,9.80
2018-09-02T02:29:38.543Z,9.79
2018-09-02T02:32:06.999Z,9.72
2018-09-02T02:34:35.613Z,9.91
2018-09-02T02:37:04.103Z,9.90
2018-09-02T02:39:32.578Z,9.96
2018-09-02T02:42:01.346Z,9.85
2018-09-02T02:44:29.762Z,9.88
2018-09-02T02:46:58.297Z,9.87
2018-09-02T02:49:27.043Z,9.71
2018-09-02T02:51:55.551Z,9.71
2018-09-02T02:54:24.071Z,9.84
2018-09-02T02:56:52.516Z,9.67
2018-09-02T02:59:20.966Z,9.62
2018-09-02T03:01:49.439Z,9.62
2018-09-02T03:04:17.955Z,9.57
2018-09-02T03:06:46.418Z,9.82
2018-09-02T03:09:14.936Z,9.66
2018-09-02T03:11:43.712Z,9.66
2018-09-02T03:14:12.229Z,9.68
2018-09-02T03:16:41.049Z,9.46
2018-09-02T03:19:10.390Z,9.58
2018-09-02T03:21:39.059Z,9.61
2018-09-02T03:24:07.544Z,9.61
2018-09-02T03:26:36.235Z,9.64
2018-09-02T03:29:04.843Z,9.67
2018-09-02T03:31:33.314Z,9.70
2018-09-02T03:34:01.971Z,9.78
2018-09-02T03:36:30.495Z,9.99
2018-09-02T03:38:58.947Z,10.13
2018-09-02T04:24:15.478Z,10.73
2018-09-02T04:26:43.916Z,10.56
2018-09-02T04:29:12.734Z,10.66
2018-09-02T04:31:41.625Z,10.60
2018-09-02T04:34:10.054Z,10.49
2018-09-02T04:36:38.474Z,10.58
2018-09-02T04:39:09.099Z,10.56
2018-09-02T04:41:37.876Z,10.44
2018-09-02T04:44:06.566Z,10.71
2018-09-02T04:46:35.496Z,10.43
2018-09-02T04:49:03.915Z,10.51
2018-09-02T04:51:32.454Z,10.31
2018-09-02T04:54:01.106Z,10.41
2018-09-02T04:56:29.592Z,10.36
2018-09-02T04:58:58.059Z,10.21
2018-09-02T05:01:26.723Z,10.27
2018-09-02T05:03:55.195Z,10.43
2018-09-02T05:06:23.605Z,10.26
2018-09-02T05:08:52.150Z,10.28
2018-09-02T05:11:20.566Z,10.17
2018-09-02T05:13:49.002Z,10.17
2018-09-02T05:16:17.626Z,10.28
2018-09-02T05:18:46.084Z,10.40
2018-09-02T05:21:14.778Z,10.58
2018-09-02T05:23:43.418Z,11.21
2018-09-02T05:26:11.866Z,11.89
2018-09-02T05:28:40.337Z,12.07
2018-09-02T05:31:08.914Z,12.16
2018-09-02T05:33:37.419Z,12.11
2018-09-02T05:36:06.023Z,12.34
2018-09-02T05:38:34.683Z,12.69
2018-09-02T05:41:03.106Z,13.04
2018-09-02T05:43:31.614Z,13.39
2018-09-02T05:46:00.111Z,13.20
2018-09-02T05:48:28.603Z,13.60
2018-09-02T05:50:57.018Z,13.87
2018-09-02T05:53:25.756Z,13.55
2018-09-02T05:55:54.179Z,13.43
2018-09-02T05:58:22.698Z,13.26
2018-09-02T06:00:51.119Z,13.10
2018-09-02T06:03:19.579Z,13.01
2018-09-02T06:05:48.031Z,12.90
2018-09-02T06:08:16.554Z,13.15
2018-09-02T06:10:45.075Z,13.32
2018-09-02T06:13:13.546Z,13.36
2018-09-02T06:15:42.065Z,13.44
2018-09-02T06:18:10.622Z,13.67
2018-09-02T06:20:39.099Z,13.72
2018-09-02T06:23:07.882Z,13.91
2018-09-02T06:25:37.950Z,14.03
2018-09-02T06:28:06.581Z,14.09
2018-09-02T06:30:35.066Z,14.22
2018-09-02T06:33:05.008Z,14.12
2018-09-02T06:35:33.528Z,14.48
2018-09-02T06:38:02.178Z,14.49
2018-09-02T06:40:30.779Z,14.49
2018-09-02T06:42:59.711Z,14.79
2018-09-02T06:45:28.266Z,15.01
2018-09-02T06:47:56.775Z,15.61
2018-09-02T06:50:25.263Z,15.67
2018-09-02T06:52:54.067Z,15.65
2018-09-02T06:55:22.518Z,15.73
2018-09-02T06:57:51.015Z,15.75
2018-09-02T07:00:19.748Z,15.81
2018-09-02T07:02:48.619Z,15.88
2018-09-02T07:05:17.126Z,15.96
2018-09-02T07:07:45.679Z,15.84
2018-09-02T07:10:14.216Z,15.85
2018-09-02T07:12:44.303Z,15.95
2018-09-02T07:15:13.727Z,15.94
2018-09-02T07:17:42.235Z,16.17
2018-09-02T07:20:10.679Z,16.12
2018-09-02T07:22:39.411Z,16.50
2018-09-02T07:25:08.045Z,16.39
2018-09-02T07:27:36.550Z,16.70
2018-09-02T07:30:05.551Z,16.73
2018-09-02T07:32:34.075Z,17.02
2018-09-02T07:35:02.558Z,16.91
2018-09-02T07:37:31.064Z,17.16
2018-09-02T07:39:59.489Z,17.32
2018-09-02T07:42:27.999Z,16.96
2018-09-02T07:44:56.594Z,17.29
2018-09-02T07:47:25.503Z,17.46
2018-09-02T07:49:53.974Z,17.34
2018-09-02T07:52:22.898Z,17.36
2018-09-02T07:54:51.414Z,17.49
2018-09-02T07:57:19.895Z,17.46
2018-09-02T07:59:48.722Z,17.46
2018-09-02T08:02:17.167Z,17.64
2018-09-02T08:04:45.594Z,17.63
2018-09-02T08:07:14.183Z,17.54
2018-09-02T08:09:42.690Z,17.50
2018-09-02T08:12:11.130Z,17.44
2018-09-02T08:14:39.896Z,17.39
2018-09-02T08:17:08.358Z,17.43
2018-09-02T08:19:36.806Z,17.55
2018-09-02T08:22:05.338Z,17.57
2018-09-02T08:24:33.971Z,17.44
2018-09-02T08:27:02.450Z,17.49
2018-09-02T08:29:30.926Z,17.64
2018-09-02T08:31:59.456Z,17.45
2018-09-02T08:34:27.928Z,17.53
2018-09-02T08:36:56.691Z,17.54
2018-09-02T08:39:25.199Z,17.54
2018-09-02T08:41:53.619Z,17.68
2018-09-02T08:44:22.203Z,17.52
2018-09-02T08:46:50.587Z,17.60
2018-09-02T08:49:19.043Z,17.52
2018-09-02T08:51:47.862Z,17.68
2018-09-02T08:54:16.286Z,17.65
2018-09-02T08:56:44.867Z,17.64
2018-09-02T08:59:13.403Z,17.70
2018-09-02T09:01:41.942Z,17.82
2018-09-02T09:04:10.358Z,18.09
2018-09-02T09:06:38.827Z,17.91
2018-09-02T09:09:07.884Z,17.87
2018-09-02T09:11:36.427Z,17.75
2018-09-02T09:14:05.148Z,17.86
2018-09-02T09:16:34.164Z,17.82
2018-09-02T09:19:02.646Z,17.88
2018-09-02T09:21:31.656Z,17.82
2018-09-02T09:24:00.106Z,17.89
2018-09-02T09:26:28.634Z,17.82
2018-09-02T09:28:57.182Z,17.91
2018-09-02T09:31:25.642Z,18.10
2018-09-02T09:33:54.246Z,18.05
2018-09-02T09:36:22.775Z,18.19
2018-09-02T09:38:51.216Z,18.41
2018-09-02T09:41:19.619Z,18.47
2018-09-02T09:43:49.059Z,18.44
2018-09-02T09:46:17.510Z,18.55
2018-09-02T09:48:46.040Z,18.67
2018-09-02T09:51:14.990Z,18.74
2018-09-02T09:53:43.758Z,19.06
2018-09-02T09:56:12.210Z,18.85
2018-09-02T09:58:40.680Z,18.93
2018-09-02T10:01:09.239Z,19.02
2018-09-02T10:03:37.744Z,19.00
2018-09-02T10:06:06.575Z,19.07
2018-09-02T10:08:35.035Z,19.00
2018-09-02T10:11:03.483Z,19.00
2018-09-02T10:13:32.155Z,19.06
2018-09-02T10:16:00.803Z,19.02
2018-09-02T10:18:29.324Z,19.01
2018-09-02T10:20:57.787Z,19.01
2018-09-02T10:23:26.210Z,18.97
2018-09-02T10:25:54.790Z,18.92
2018-09-02T10:28:23.363Z,19.01
2018-09-02T10:30:51.779Z,18.96
2018-09-02T10:33:20.307Z,19.03
2018-09-02T10:35:48.774Z,19.04
2018-09-02T10:38:17.221Z,19.06
2018-09-02T10:40:45.658Z,19.16
2018-09-02T10:43:14.395Z,19.17
2018-09-02T10:45:42.878Z,18.98
2018-09-02T10:48:11.348Z,19.04
2018-09-02T10:50:39.969Z,18.99
2018-09-02T10:53:08.517Z,18.92
2018-09-02T10:55:36.954Z,18.92
2018-09-02T10:58:05.858Z,18.92
2018-09-02T11:00:34.307Z,18.92
2018-09-02T11:03:02.747Z,18.96
2018-09-02T11:05:31.178Z,19.09
2018-09-02T11:07:59.601Z,19.19
2018-09-02T11:10:28.051Z,19.27
2018-09-02T11:12:56.657Z,19.22
2018-09-02T11:15:25.154Z,19.30
2018-09-02T11:17:53.682Z,19.36
2018-09-02T11:20:22.257Z,19.29
2018-09-02T11:22:50.695Z,19.35
2018-09-02T11:25:19.208Z,19.42
2018-09-02T11:27:48.003Z,19.53
2018-09-02T11:30:16.539Z,19.44
2018-09-02T11:32:45.197Z,19.31
2018-09-02T11:35:13.940Z,19.32
2018-09-02T11:37:42.429Z,19.33
2018-09-02T11:40:10.910Z,19.32
2018-09-02T11:42:39.434Z,19.32
2018-09-02T11:45:08.021Z,19.39
2018-09-02T11:47:36.386Z,19.32
2018-09-02T11:50:05.207Z,19.47
2018-09-02T11:52:33.663Z,19.45
2018-09-02T11:55:02.103Z,19.53
2018-09-02T11:57:30.837Z,19.44
2018-09-02T11:59:59.419Z,19.43
2018-09-02T12:02:27.858Z,19.40
2018-09-02T12:04:56.562Z,19.52
2018-09-02T12:07:24.947Z,19.44
2018-09-02T12:09:53.695Z,19.42
2018-09-02T12:12:22.320Z,19.46
2018-09-02T12:14:50.838Z,19.65
2018-09-02T12:17:19.458Z,19.55
2018-09-02T12:19:48.116Z,19.68
2018-09-02T12:22:16.738Z,19.72
2018-09-02T12:24:45.231Z,19.78
2018-09-02T12:27:13.879Z,19.78
2018-09-02T12:29:42.572Z,19.88
2018-09-02T12:32:11.007Z,19.98
2018-09-02T12:34:39.571Z,19.89
2018-09-02T12:37:07.983Z,19.89
2018-09-02T12:39:36.472Z,20.07
2018-09-02T12:42:05.220Z,20.31
2018-09-02T12:44:33.707Z,20.27
2018-09-02T12:47:02.191Z,20.44
2018-09-02T12:49:30.727Z,20.40
2018-09-02T12:51:59.355Z,20.48
2018-09-02T12:54:28.007Z,20.55
2018-09-02T12:56:56.503Z,20.56
2018-09-02T12:59:25.108Z,20.45
2018-09-02T13:01:53.620Z,20.62
2018-09-02T13:04:22.378Z,20.51
2018-09-02T13:06:50.934Z,20.54
2018-09-02T13:09:19.601Z,20.43
2018-09-02T13:11:48.472Z,20.50
2018-09-02T13:14:16.975Z,20.47
2018-09-02T13:16:45.440Z,20.62
2018-09-02T13:19:14.103Z,20.47
2018-09-02T13:21:42.636Z,20.75
2018-09-02T13:24:11.141Z,20.57
2018-09-02T13:26:39.696Z,20.77
2018-09-02T13:29:08.262Z,20.56
2018-09-02T13:31:37.004Z,20.40
2018-09-02T13:34:05.695Z,20.31
2018-09-02T13:36:34.266Z,20.30
2018-09-02T13:39:02.875Z,20.32
2018-09-02T13:41:31.751Z,20.25
2018-09-02T13:44:00.255Z,20.22
2018-09-02T13:46:28.737Z,20.20
2018-09-02T13:48:57.459Z,20.06
2018-09-02T13:51:26.194Z,20.05
2018-09-02T13:53:54.631Z,20.11
2018-09-02T13:56:23.252Z,20.19
2018-09-02T13:58:51.903Z,20.33
2018-09-02T14:01:20.424Z,20.23
2018-09-02T14:03:49.038Z,20.25
2018-09-02T14:06:17.451Z,20.18
2018-09-02T14:08:45.918Z,20.17
2018-09-02T14:11:15.038Z,20.10
2018-09-02T14:13:43.601Z,20.10
2018-09-02T14:16:12.115Z,20.13
2018-09-02T14:18:40.863Z,20.11
2018-09-02T14:21:09.336Z,20.11
2018-09-02T14:23:37.782Z,20.14
2018-09-02T14:26:06.604Z,20.15
2018-09-02T14:28:35.074Z,20.12
2018-09-02T14:31:04.003Z,20.09
2018-09-02T14:33:32.707Z,20.21
2018-09-02T14:36:01.155Z,20.11
2018-09-02T14:38:29.619Z,20.16
2018-09-02T14:40:58.183Z,20.03
2018-09-02T14:43:26.671Z,20.12
2018-09-02T14:45:55.092Z,20.07
2018-09-02T14:48:23.641Z,20.12
2018-09-02T14:50:52.172Z,20.23
2018-09-02T14:53:20.592Z,20.12
2018-09-02T14:55:49.163Z,20.09
2018-09-02T14:58:17.983Z,20.23
2018-09-02T15:00:46.522Z,20.24
2018-09-02T15:03:15.134Z,20.26
2018-09-02T15:05:43.678Z,20.27
2018-09-02T15:08:12.175Z,20.22
2018-09-02T15:10:40.715Z,20.23
2018-09-02T15:13:09.283Z,20.33
2018-09-02T15:15:37.739Z,20.23
2018-09-02T15:18:11.819Z,20.26
2018-09-02T15:20:40.283Z,20.24
2018-09-02T15:23:08.708Z,20.20
2018-09-02T15:25:37.275Z,20.34
2018-09-02T15:28:05.887Z,20.22
2018-09-02T15:30:34.429Z,20.20
2018-09-02T15:33:03.123Z,20.16
2018-09-02T15:35:31.630Z,20.05
2018-09-02T15:38:00.070Z,20.00
2018-09-02T15:40:28.727Z,20.06
2018-09-02T15:42:57.162Z,20.02
2018-09-02T15:45:26.063Z,20.07
2018-09-02T15:47:54.543Z,20.04
2018-09-02T15:50:23.030Z,20.11
2018-09-02T15:52:51.503Z,20.16
2018-09-02T15:55:20.127Z,20.11
2018-09-02T15:57:48.603Z,20.33
2018-09-02T16:00:17.077Z,20.18
2018-09-02T16:02:45.592Z,20.03
2018-09-02T16:05:14.079Z,19.81
2018-09-02T16:07:42.487Z,19.89
2018-09-02T16:10:11.235Z,19.78
2018-09-02T16:12:39.759Z,19.81
2018-09-02T16:15:08.252Z,19.67
2018-09-02T16:17:36.768Z,19.78
2018-09-02T16:20:05.658Z,19.69
2018-09-02T16:22:34.079Z,19.72
2018-09-02T16:25:02.703Z,19.68
2018-09-02T16:27:31.235Z,19.65
2018-09-02T16:29:59.691Z,19.70
2018-09-02T16:32:30.119Z,19.76
2018-09-02T16:34:58.751Z,19.68
2018-09-02T16:37:27.403Z,19.57
2018-09-02T16:39:55.882Z,19.58
2018-09-02T16:42:24.348Z,19.45
2018-09-02T16:44:53.124Z,19.37
2018-09-02T16:47:21.723Z,19.31
2018-09-02T16:49:50.262Z,19.43
2018-09-02T16:52:19.035Z,19.28
2018-09-02T16:54:47.719Z,19.16
2018-09-02T16:57:16.225Z,19.19
2018-09-02T16:59:44.715Z,19.12
2018-09-02T17:02:13.549Z,19.05
2018-09-02T17:04:43.942Z,19.06
2018-09-02T17:07:12.387Z,19.28
2018-09-02T17:09:41.048Z,19.07
2018-09-02T17:12:09.638Z,19.10
2018-09-02T17:14:38.094Z,19.05
2018-09-02T17:17:06.824Z,19.03
2018-09-02T17:19:37.591Z,19.00
2018-09-02T17:22:06.688Z,19.01
2018-09-02T17:24:35.408Z,18.93
2018-09-02T17:27:03.923Z,19.00
2018-09-02T17:29:32.659Z,19.12
2018-09-02T17:32:05.029Z,18.83
2018-09-02T17:34:33.606Z,18.83
2018-09-02T17:37:02.072Z,18.87
2018-09-02T17:39:30.606Z,18.97
2018-09-02T17:41:59.038Z,18.96
2018-09-02T17:44:27.559Z,18.90
2018-09-02T17:46:56.034Z,18.87
2018-09-02T17:49:24.954Z,18.76
2018-09-02T17:51:53.457Z,18.74
2018-09-02T17:54:22.004Z,18.81
2018-09-02T17:56:50.581Z,18.70
2018-09-02T17:59:19.163Z,18.78
2018-09-02T18:01:48.252Z,18.84
2018-09-02T18:04:16.735Z,18.91
2018-09-02T18:06:45.553Z,18.78
2018-09-02T18:09:14.059Z,18.60
2018-09-02T18:11:43.199Z,18.75
2018-09-02T18:14:11.764Z,18.61
2018-09-02T18:16:40.429Z,18.75
2018-09-02T18:19:09.436Z,18.69
2018-09-02T18:21:38.133Z,18.65
2018-09-02T18:24:06.644Z,18.63
2018-09-02T18:26:35.182Z,18.45
2018-09-02T18:29:03.738Z,18.57
2018-09-02T18:31:32.331Z,18.51
2018-09-02T18:34:01.135Z,18.66
2018-09-02T18:36:29.853Z,18.50
2018-09-02T18:38:58.309Z,18.48
2018-09-02T18:41:26.939Z,18.49
2018-09-02T18:43:55.776Z,18.42
2018-09-02T18:46:25.413Z,18.48
2018-09-02T18:48:54.364Z,18.41
2018-09-02T18:51:23.057Z,18.33
2018-09-02T18:53:51.698Z,18.27
2018-09-02T18:56:20.481Z,18.30
2018-09-02T18:58:49.142Z,18.30
2018-09-02T19:01:17.759Z,18.27
2018-09-02T19:03:46.626Z,18.29
2018-09-02T19:06:15.133Z,18.34
2018-09-02T19:08:43.643Z,18.32
2018-09-02T19:11:12.822Z,18.32
2018-09-02T19:13:41.295Z,18.27
2018-09-02T19:16:09.993Z,18.27
2018-09-02T19:18:38.637Z,18.29
2018-09-02T19:21:07.466Z,18.21
2018-09-02T19:23:36.263Z,18.15
2018-09-02T19:26:05.215Z,18.06
2018-09-02T19:28:33.743Z,18.15
2018-09-02T19:31:02.445Z,18.14
2018-09-02T19:33:31.951Z,18.12
2018-09-02T19:36:00.563Z,18.25
2018-09-02T19:38:30.450Z,18.12
2018-09-02T19:41:02.667Z,18.15
2018-09-02T19:43:31.392Z,18.20
2018-09-02T19:46:00.847Z,18.21
2018-09-02T19:48:29.365Z,18.13
2018-09-02T19:50:57.879Z,18.12
2018-09-02T19:53:26.631Z,18.36
2018-09-02T19:55:55.278Z,18.25
2018-09-02T19:58:23.868Z,18.16
2018-09-02T20:00:52.624Z,18.16
2018-09-02T20:03:21.160Z,18.21
2018-09-02T20:05:49.611Z,18.04
2018-09-02T20:08:19.027Z,17.93
2018-09-02T20:10:47.504Z,18.10
2018-09-02T20:13:15.992Z,18.18
2018-09-02T20:15:44.683Z,18.19
2018-09-02T20:18:13.249Z,18.31
2018-09-02T20:20:41.675Z,18.45
2018-09-02T20:23:10.107Z,18.18
2018-09-02T20:25:38.601Z,18.13
2018-09-02T20:28:07.495Z,18.26
2018-09-02T20:30:36.266Z,18.29
2018-09-02T20:33:05.758Z,18.16
2018-09-02T20:35:34.213Z,18.09
2018-09-02T20:38:02.824Z,18.14
2018-09-02T20:40:31.939Z,18.00
2018-09-02T20:43:00.408Z,17.96
2018-09-02T20:45:28.969Z,18.13
2018-09-02T20:47:57.395Z,18.15
2018-09-02T20:50:25.821Z,18.15
2018-09-02T20:52:54.275Z,18.05
2018-09-02T20:55:22.708Z,18.07
2018-09-02T20:57:51.184Z,17.88
2018-09-02T21:00:19.943Z,17.98
2018-09-02T21:02:48.527Z,17.96
2018-09-02T21:05:17.559Z,17.93
2018-09-02T21:07:46.849Z,18.02
2018-09-02T21:10:15.414Z,18.04
2018-09-02T21:12:44.107Z,17.86
2018-09-02T21:15:12.544Z,17.99
2018-09-02T21:17:41.050Z,18.05
2018-09-02T21:20:09.567Z,18.07
2018-09-02T21:22:38.171Z,18.13
2018-09-02T21:25:06.687Z,17.94
2018-09-02T21:27:35.151Z,18.11
2018-09-02T21:30:03.907Z,17.92
2018-09-02T21:32:32.375Z,18.13
2018-09-02T21:35:00.919Z,18.04
2018-09-02T21:37:29.747Z,18.02
2018-09-02T21:39:58.183Z,18.06
2018-09-02T21:42:26.633Z,17.93
2018-09-02T21:44:55.247Z,17.92
2018-09-02T21:47:23.694Z,17.76
2018-09-02T21:49:52.190Z,18.00
2018-09-02T21:52:20.734Z,18.06
2018-09-02T21:54:49.301Z,18.14
2018-09-02T21:57:17.691Z,18.04
2018-09-02T21:59:46.334Z,18.19
2018-09-02T22:02:14.771Z,17.99
2018-09-02T22:04:43.175Z,18.18
2018-09-02T22:07:11.822Z,18.05
2018-09-02T22:09:40.254Z,18.09
2018-09-02T22:12:08.767Z,18.05
2018-09-02T22:14:37.270Z,18.24
2018-09-02T22:17:05.818Z,18.13
2018-09-02T22:19:34.306Z,18.13
2018-09-02T22:22:02.995Z,18.32
2018-09-02T22:24:31.506Z,18.27
2018-09-02T22:27:00.152Z,18.18
2018-09-02T22:29:28.651Z,18.50
2018-09-02T22:31:57.052Z,18.44
2018-09-02T22:34:25.528Z,18.24
2018-09-02T22:36:54.164Z,18.05
2018-09-02T22:39:22.582Z,18.14
2018-09-02T22:41:51.113Z,18.06
2018-09-02T22:44:19.765Z,17.97
2018-09-02T22:46:48.319Z,18.06
2018-09-02T22:49:16.755Z,18.25
2018-09-02T22:51:45.231Z,18.05
2018-09-02T22:54:13.746Z,18.04
2018-09-02T22:56:42.142Z,17.94
2018-09-02T22:59:10.942Z,17.92
2018-09-02T23:01:39.442Z,17.87
2018-09-02T23:04:07.975Z,18.21
2018-09-02T23:06:36.447Z,18.04
2018-09-02T23:09:06.082Z,18.23
2018-09-02T23:11:34.527Z,18.11
2018-09-02T23:14:03.214Z,18.10
2018-09-02T23:16:32.334Z,17.98
2018-09-02T23:19:00.758Z,18.11
2018-09-02T23:21:29.492Z,18.16
2018-09-02T23:23:58.195Z,18.21
2018-09-02T23:26:26.719Z,17.98
2018-09-02T23:28:55.526Z,17.94
2018-09-02T23:31:23.947Z,18.32
2018-09-02T23:33:52.562Z,18.20
2018-09-02T23:36:21.598Z,18.12
2018-09-02T23:38:50.234Z,18.03
2018-09-02T23:41:18.711Z,17.89
2018-09-02T23:43:47.346Z,17.81
2018-09-02T23:46:15.962Z,17.87
2018-09-02T23:48:44.411Z,17.83
2018-09-02T23:51:12.898Z,17.76
2018-09-02T23:53:41.412Z,17.86
2018-09-02T23:56:09.952Z,18.02
2018-09-02T23:58:38.626Z,18.11
